Seattle, WA (98101)

4:45 PM PST on January 19, 2017 (GMT -0800)
Seattle | | Change Station
Active Advisory: Small Craft Advisory

Elev 0 ft 47.61 °N, 122.34 °W | Updated 3 minutes ago

Rain
Rain
47.3 °F
Feels Like 45 °F
N
5.0
Wind Variable Wind from South
Gusts 10.6 mph

Today
High -- | Low -- °F
--% Chance of Precip.
Yesterday
High -- | Low -- °F
Precip. -- in
Pressure 29.50 in
Visibility 10.0 miles
Clouds Scattered Clouds 2200 ft
Mostly Cloudy 4400 ft
Overcast 5500 ft
Windchill 45 °F
Dew Point 46 °F
Humidity 94%
Rainfall 0.03 in
Snow Depth Not available.
7:49 AM 4:51 PM
Waning Gibbous, 49% visible
METAR KBFI 192353Z 16006KT 10SM -RA SCT022 BKN044 OVC055 08/07 A2950 RMK AO2 SLP989 P0003 60012 T00830067 10100 20083 56003
Pressure 29.50 in
Visibility 10.0 miles
Clouds Scattered Clouds 2200 ft
Mostly Cloudy 4400 ft
Overcast 5500 ft
Windchill 45 °F
Dew Point 46 °F
Humidity 94%
Rainfall 0.03 in
Snow Depth Not available.
7:49 AM 4:51 PM
Waning Gibbous, 49% visible
METAR KBFI 192353Z 16006KT 10SM -RA SCT022 BKN044 OVC055 08/07 A2950 RMK AO2 SLP989 P0003 60012 T00830067 10100 20083 56003

Get Your Daily Forecast Email!

Thanks for signing up!

Be on the lookout for a verification email in your inbox.

You'll start receiving the daily forecast at 8 AM.

×

10-Day Weather Forecast

Almanac

Astronomy

Jan. 19, 2017 Rise Set
Actual Time
Civil Twilight
Nautical Twilight
Astronomical Twilight
Moon
Length of Visible Light
Length of Day
Tomorrow will be .
, % of the Moon is Illuminated

Today's Extremes

State Highs State Lows

Community

WunderPhotos

Upload Photos

1,962,540 photos uploaded!

WunderBlog® & News

Nearby

Air Quality

  Air Quality AQ Index Pollutant
Not available.

Snow Depth

Station Depth Elevation

Earthquake Activity

City Distance Mag. Time & Date
Minimum magnitude displayed is 2.5.

Coastal Water Temperatures

Place Temperature

Stations

Nearby Weather Stations

Station Location Temp. Windchill Dew Point Humidity Wind Precip. Elev Updated Type
                   

Watches & Warnings

Small Craft Advisory
Issued: 2:50 PM PST Jan. 19, 2017 – National Weather Service

... Small Craft Advisory in effect until 4 PM PST Friday...

The National Weather Service in Seattle has issued a Small Craft
Advisory... which is in effect until 4 PM PST Friday.

* Winds... southeast 15 to 25 kt.

Precautionary/preparedness actions...

A Small Craft Advisory means that wind speeds of 21 to 33 knots are
expected to produce hazardous wave conditions to small craft.
Inexperienced mariners... especially those operating smaller vessels
should avoid navigating in these conditions.